createdAt,value
2019-05-06T00:00:05.293Z,32.17
2019-05-06T00:00:53.421Z,32.00
2019-05-06T00:01:17.294Z,32.08
2019-05-06T00:01:50.258Z,31.87
2019-05-06T00:02:24.565Z,31.62
2019-05-06T00:02:59.314Z,32.30
2019-05-06T00:03:34.221Z,31.73
2019-05-06T00:04:08.853Z,31.77
2019-05-06T00:04:41.926Z,31.40
2019-05-06T00:05:15.018Z,31.80
2019-05-06T00:05:48.012Z,31.85
2019-05-06T00:06:23.547Z,31.75
2019-05-06T00:06:57.180Z,32.23
2019-05-06T00:07:30.390Z,31.68
2019-05-06T00:08:03.996Z,32.80
2019-05-06T00:08:37.128Z,32.13
2019-05-06T00:09:10.247Z,32.05
2019-05-06T00:09:44.192Z,31.77
2019-05-06T00:10:27.662Z,32.20
2019-05-06T00:11:00.792Z,31.85
2019-05-06T00:11:34.627Z,32.80
2019-05-06T00:12:08.110Z,31.87
2019-05-06T00:12:41.218Z,31.95
2019-05-06T00:13:14.224Z,31.52
2019-05-06T00:13:47.281Z,32.38
2019-05-06T00:14:20.396Z,31.55
2019-05-06T00:14:54.184Z,31.95
2019-05-06T00:15:27.953Z,31.80
2019-05-06T00:16:03.790Z,31.90
2019-05-06T00:16:36.710Z,32.00
2019-05-06T00:17:10.484Z,31.77
2019-05-06T00:17:44.547Z,31.82
2019-05-06T00:18:17.912Z,31.42
2019-05-06T00:18:51.116Z,31.80
2019-05-06T00:19:24.676Z,31.60
2019-05-06T00:19:58.052Z,31.68
2019-05-06T00:20:31.041Z,31.85
2019-05-06T00:21:04.785Z,32.05
2019-05-06T00:21:37.910Z,31.42
2019-05-06T00:22:10.968Z,31.37
2019-05-06T00:22:45.556Z,32.05
2019-05-06T00:23:26.737Z,31.73
2019-05-06T00:24:00.030Z,31.90
2019-05-06T00:24:40.543Z,31.37
2019-05-06T00:25:18.529Z,31.45
2019-05-06T00:26:13.516Z,31.27
2019-05-06T00:27:04.791Z,31.57
2019-05-06T00:27:57.723Z,31.73
2019-05-06T00:28:53.846Z,31.45
2019-05-06T00:29:29.440Z,31.33
2019-05-06T00:30:04.482Z,31.50
2019-05-06T00:30:38.718Z,31.35
2019-05-06T00:31:16.597Z,31.02
2019-05-06T00:31:48.369Z,31.73
2019-05-06T00:32:21.372Z,31.25
2019-05-06T00:32:54.446Z,31.80
2019-05-06T00:33:27.421Z,31.65
2019-05-06T00:34:00.435Z,31.60
2019-05-06T00:34:34.083Z,31.62
2019-05-06T00:35:07.394Z,31.17
2019-05-06T00:35:40.462Z,31.95
2019-05-06T00:36:14.176Z,31.42
2019-05-06T00:36:47.511Z,31.50
2019-05-06T00:37:20.332Z,31.68
2019-05-06T00:37:53.682Z,31.60
2019-05-06T00:38:26.666Z,31.65
2019-05-06T00:39:09.940Z,31.50
2019-05-06T00:40:08.296Z,31.57
2019-05-06T00:40:43.685Z,31.10
2019-05-06T00:41:26.540Z,30.90
2019-05-06T00:42:05.282Z,31.20
2019-05-06T00:42:47.647Z,32.08
2019-05-06T00:43:20.716Z,31.55
2019-05-06T00:43:54.629Z,31.75
2019-05-06T00:44:28.783Z,31.07
2019-05-06T00:45:04.260Z,32.05
2019-05-06T00:45:39.188Z,31.82
2019-05-06T00:46:13.865Z,30.97
2019-05-06T00:46:47.160Z,31.82
2019-05-06T00:47:20.248Z,31.00
2019-05-06T00:47:53.659Z,31.50
2019-05-06T00:48:26.724Z,31.45
2019-05-06T00:48:59.876Z,31.10
2019-05-06T00:49:34.428Z,31.12
2019-05-06T00:50:09.166Z,31.30
2019-05-06T00:50:44.099Z,31.40
2019-05-06T00:51:17.100Z,31.10
2019-05-06T00:51:50.194Z,32.00
2019-05-06T00:52:25.822Z,31.73
2019-05-06T00:52:59.788Z,31.73
2019-05-06T00:53:34.914Z,31.40
2019-05-06T00:54:15.779Z,31.15
2019-05-06T00:54:50.350Z,31.52
2019-05-06T00:55:24.143Z,31.48
2019-05-06T00:55:57.246Z,31.27
2019-05-06T00:56:30.305Z,31.48
2019-05-06T00:57:03.721Z,31.70
2019-05-06T00:57:43.808Z,31.73
2019-05-06T00:58:17.336Z,31.10
2019-05-06T00:58:50.287Z,30.72
2019-05-06T00:59:23.830Z,31.07
2019-05-06T00:59:56.936Z,31.25
2019-05-06T01:00:38.255Z,31.15
2019-05-06T01:01:25.495Z,31.15
2019-05-06T01:01:46.155Z,30.82
2019-05-06T01:02:19.233Z,31.52
2019-05-06T01:02:54.097Z,31.02
2019-05-06T01:03:27.194Z,31.68
2019-05-06T01:04:00.175Z,31.25
2019-05-06T01:04:33.855Z,31.40
2019-05-06T01:05:07.648Z,31.48
2019-05-06T01:05:41.238Z,31.07
2019-05-06T01:06:14.334Z,31.10
2019-05-06T01:06:47.388Z,31.17
2019-05-06T01:07:20.512Z,31.93
2019-05-06T01:07:54.891Z,30.92
2019-05-06T01:08:28.214Z,31.40
2019-05-06T01:09:01.270Z,31.42
2019-05-06T01:09:36.064Z,31.23
2019-05-06T01:10:09.328Z,31.25
2019-05-06T01:10:42.338Z,31.15
2019-05-06T01:11:15.262Z,30.95
2019-05-06T01:11:50.778Z,31.10
2019-05-06T01:12:24.089Z,30.70
2019-05-06T01:13:16.971Z,30.70
2019-05-06T01:14:04.036Z,30.72
2019-05-06T01:14:43.584Z,31.25
2019-05-06T01:15:17.883Z,31.10
2019-05-06T01:15:50.954Z,31.20
2019-05-06T01:16:24.937Z,30.40
2019-05-06T01:16:58.204Z,31.07
2019-05-06T01:17:31.156Z,31.40
2019-05-06T01:18:04.584Z,31.02
2019-05-06T01:18:39.425Z,30.80
2019-05-06T01:19:14.160Z,30.65
2019-05-06T01:19:48.627Z,30.85
2019-05-06T01:20:21.524Z,30.85
2019-05-06T01:21:09.233Z,30.92
2019-05-06T01:21:42.233Z,30.85
2019-05-06T01:22:15.440Z,30.75
2019-05-06T01:22:48.572Z,30.65
2019-05-06T01:23:23.376Z,30.90
2019-05-06T01:23:56.604Z,30.65
2019-05-06T01:24:29.796Z,30.60
2019-05-06T01:25:03.928Z,30.80
2019-05-06T01:25:37.235Z,30.72
2019-05-06T01:26:11.501Z,30.55
2019-05-06T01:26:44.545Z,30.55
2019-05-06T01:27:17.630Z,30.35
2019-05-06T01:27:50.782Z,31.05
2019-05-06T01:28:24.472Z,30.95
2019-05-06T01:28:57.576Z,30.30
2019-05-06T01:29:30.710Z,30.62
2019-05-06T01:30:04.608Z,30.60
2019-05-06T01:30:37.884Z,30.92
2019-05-06T01:31:11.033Z,30.80
2019-05-06T01:31:46.197Z,30.68
2019-05-06T01:32:19.106Z,31.02
2019-05-06T01:32:52.015Z,30.80
2019-05-06T01:33:25.070Z,31.37
2019-05-06T01:33:57.953Z,30.68
2019-05-06T01:34:31.007Z,30.50
2019-05-06T01:35:04.814Z,30.72
2019-05-06T01:35:37.956Z,30.85
2019-05-06T01:36:10.995Z,30.95
2019-05-06T01:36:44.186Z,30.60
2019-05-06T01:37:17.210Z,31.00
2019-05-06T01:38:09.984Z,30.68
2019-05-06T01:38:54.235Z,30.50
2019-05-06T01:39:35.437Z,30.68
2019-05-06T01:40:25.596Z,30.80
2019-05-06T01:41:17.122Z,30.90
2019-05-06T01:42:25.063Z,30.40
2019-05-06T01:43:03.646Z,30.12
2019-05-06T01:43:36.781Z,30.00
2019-05-06T01:44:09.872Z,30.10
2019-05-06T01:44:44.301Z,30.82
2019-05-06T01:45:17.538Z,30.32
2019-05-06T01:45:50.700Z,30.35
2019-05-06T01:46:24.361Z,30.45
2019-05-06T01:46:57.468Z,30.70
2019-05-06T01:47:30.447Z,30.57
2019-05-06T01:48:04.082Z,30.37
2019-05-06T01:48:46.441Z,30.75
2019-05-06T01:49:20.522Z,30.10
2019-05-06T01:49:53.888Z,30.50
2019-05-06T01:50:28.102Z,30.60
2019-05-06T01:51:01.051Z,30.30
2019-05-06T01:51:34.822Z,30.55
2019-05-06T01:52:08.180Z,30.25
2019-05-06T01:52:41.116Z,30.23
2019-05-06T01:53:14.084Z,30.82
2019-05-06T01:53:47.530Z,30.70
2019-05-06T01:54:21.797Z,30.55
2019-05-06T01:54:54.775Z,30.85
2019-05-06T01:55:27.740Z,30.35
2019-05-06T01:56:00.655Z,30.62
2019-05-06T01:56:34.549Z,30.30
2019-05-06T01:57:08.802Z,30.95
2019-05-06T01:57:56.680Z,30.60
2019-05-06T01:58:29.689Z,30.90
2019-05-06T01:59:04.732Z,30.90
2019-05-06T01:59:38.063Z,30.20
2019-05-06T02:00:13.945Z,30.37
2019-05-06T02:00:46.982Z,30.32
2019-05-06T02:01:20.532Z,30.20
2019-05-06T02:02:00.643Z,30.55
2019-05-06T02:02:28.662Z,30.57
2019-05-06T02:03:03.605Z,30.00
2019-05-06T02:03:37.874Z,31.05
2019-05-06T02:04:13.857Z,30.68
2019-05-06T02:04:47.034Z,30.72
2019-05-06T02:05:20.106Z,30.43
2019-05-06T02:05:53.927Z,30.80
2019-05-06T02:06:27.188Z,30.40
2019-05-06T02:07:00.274Z,30.95
2019-05-06T02:07:34.941Z,30.45
2019-05-06T02:08:08.193Z,30.90
2019-05-06T02:08:41.302Z,30.85
2019-05-06T02:09:15.879Z,31.30
2019-05-06T02:09:48.814Z,30.48
2019-05-06T02:10:23.871Z,31.07
2019-05-06T02:10:57.498Z,30.57
2019-05-06T02:11:30.460Z,30.65
2019-05-06T02:12:04.862Z,30.10
2019-05-06T02:12:37.943Z,31.00
2019-05-06T02:13:11.216Z,30.43
2019-05-06T02:13:44.975Z,30.02
2019-05-06T02:14:17.982Z,30.55
2019-05-06T02:14:50.859Z,30.80
2019-05-06T02:15:24.058Z,30.45
2019-05-06T02:15:57.252Z,30.65
2019-05-06T02:16:30.290Z,30.35
2019-05-06T02:17:03.791Z,30.17
2019-05-06T02:17:36.844Z,30.40
2019-05-06T02:18:09.902Z,30.40
2019-05-06T02:18:44.788Z,30.82
2019-05-06T02:19:17.974Z,30.97
2019-05-06T02:19:51.014Z,30.40
2019-05-06T02:20:24.626Z,30.70
2019-05-06T02:21:05.494Z,30.90
2019-05-06T02:21:56.700Z,30.65
2019-05-06T02:22:53.877Z,31.02
2019-05-06T02:23:29.082Z,30.68
2019-05-06T02:24:04.494Z,30.88
2019-05-06T02:24:41.115Z,30.37
2019-05-06T02:25:18.560Z,31.10
2019-05-06T02:25:53.988Z,30.43
2019-05-06T02:26:27.098Z,30.15
2019-05-06T02:27:00.200Z,30.23
2019-05-06T02:27:34.095Z,31.12
2019-05-06T02:28:14.320Z,30.30
2019-05-06T02:28:50.891Z,30.57
2019-05-06T02:29:26.685Z,30.85
2019-05-06T02:30:25.270Z,30.55
2019-05-06T02:31:15.709Z,30.30
2019-05-06T02:32:26.323Z,30.57
2019-05-06T02:33:04.801Z,30.55
2019-05-06T02:33:44.907Z,31.57
2019-05-06T02:34:26.449Z,30.88
2019-05-06T02:35:14.938Z,30.35
2019-05-06T02:35:59.119Z,30.50
2019-05-06T02:37:00.990Z,30.60
2019-05-06T02:37:38.961Z,30.80
2019-05-06T02:38:39.254Z,30.68
2019-05-06T02:39:06.611Z,30.23
2019-05-06T02:39:39.422Z,30.17
2019-05-06T02:40:24.922Z,30.30
2019-05-06T02:40:56.980Z,30.50
2019-05-06T02:41:30.046Z,31.42
2019-05-06T02:42:05.329Z,30.70
2019-05-06T02:42:38.562Z,30.05
2019-05-06T02:43:13.550Z,30.20
2019-05-06T02:43:46.676Z,30.55
2019-05-06T02:44:19.751Z,30.72
2019-05-06T02:44:54.085Z,30.23
2019-05-06T02:45:27.498Z,30.55
2019-05-06T02:46:03.964Z,30.60
2019-05-06T02:46:36.516Z,30.70
2019-05-06T02:47:29.506Z,30.70
2019-05-06T02:48:13.767Z,30.77
2019-05-06T02:49:09.203Z,30.60
2019-05-06T02:49:48.853Z,30.15
2019-05-06T02:50:23.995Z,30.52
2019-05-06T02:51:06.367Z,30.92
2019-05-06T02:51:39.542Z,31.15
2019-05-06T02:52:14.002Z,30.50
2019-05-06T02:52:47.349Z,30.08
2019-05-06T02:53:23.617Z,30.25
2019-05-06T02:53:56.587Z,30.12
2019-05-06T02:54:29.643Z,30.05
2019-05-06T02:55:06.458Z,30.48
2019-05-06T02:55:38.242Z,30.80
2019-05-06T02:56:13.387Z,30.32
2019-05-06T02:56:46.215Z,30.00
2019-05-06T02:57:19.187Z,30.85
2019-05-06T02:57:53.630Z,30.32
2019-05-06T02:58:27.065Z,30.55
2019-05-06T02:59:00.013Z,30.27
2019-05-06T02:59:33.712Z,30.85
2019-05-06T03:00:13.178Z,30.10
2019-05-06T03:00:46.483Z,30.62
2019-05-06T03:01:19.580Z,30.40
2019-05-06T03:01:53.823Z,30.57
2019-05-06T03:02:39.864Z,30.70
2019-05-06T03:03:02.866Z,29.90
2019-05-06T03:03:36.321Z,30.00
2019-05-06T03:04:12.936Z,30.30
2019-05-06T03:04:44.894Z,30.40
2019-05-06T03:05:17.871Z,30.12
2019-05-06T03:05:53.251Z,30.45
2019-05-06T03:06:26.491Z,30.65
2019-05-06T03:07:03.732Z,30.00
2019-05-06T03:07:37.738Z,30.55
2019-05-06T03:08:13.424Z,29.77
2019-05-06T03:08:45.799Z,30.05
2019-05-06T03:09:18.836Z,30.08
2019-05-06T03:09:53.259Z,30.08
2019-05-06T03:10:26.655Z,30.00
2019-05-06T03:10:59.689Z,29.95
2019-05-06T03:11:34.736Z,30.32
2019-05-06T03:12:07.784Z,30.27
2019-05-06T03:12:43.071Z,30.27
2019-05-06T03:13:16.276Z,30.37
2019-05-06T03:13:49.569Z,30.50
2019-05-06T03:14:23.452Z,30.43
2019-05-06T03:14:56.764Z,30.15
2019-05-06T03:15:29.764Z,29.60
2019-05-06T03:16:05.657Z,30.43
2019-05-06T03:16:37.917Z,30.40
2019-05-06T03:17:13.757Z,30.23
2019-05-06T03:17:45.749Z,29.82
2019-05-06T03:18:18.676Z,30.48
2019-05-06T03:18:53.160Z,30.43
2019-05-06T03:19:27.206Z,30.05
2019-05-06T03:20:04.133Z,29.92
2019-05-06T03:20:53.344Z,30.68
2019-05-06T03:21:45.041Z,30.23
2019-05-06T03:22:35.950Z,30.32
2019-05-06T03:23:13.971Z,30.62
2019-05-06T03:23:49.292Z,30.40
2019-05-06T03:24:28.224Z,30.60
2019-05-06T03:25:17.092Z,30.10
2019-05-06T03:25:53.325Z,30.95
2019-05-06T03:26:26.331Z,30.05
2019-05-06T03:26:59.415Z,30.40
2019-05-06T03:27:32.997Z,30.23
2019-05-06T03:28:07.745Z,30.50
2019-05-06T03:28:43.774Z,29.87
2019-05-06T03:29:15.858Z,29.90
2019-05-06T03:29:48.870Z,29.90
2019-05-06T03:30:25.461Z,30.15
2019-05-06T03:30:58.040Z,29.92
2019-05-06T03:31:36.331Z,30.57
2019-05-06T03:32:08.136Z,30.45
2019-05-06T03:33:21.283Z,30.35
2019-05-06T03:33:49.792Z,30.30
2019-05-06T03:34:13.296Z,29.90
2019-05-06T03:34:48.956Z,30.00
2019-05-06T03:35:25.280Z,30.25
2019-05-06T03:35:50.441Z,29.95
2019-05-06T03:36:18.728Z,30.35
2019-05-06T03:36:48.642Z,30.10
2019-05-06T03:37:23.698Z,29.90
2019-05-06T03:37:55.942Z,30.05
2019-05-06T03:38:29.011Z,30.05
2019-05-06T03:39:03.110Z,30.12
2019-05-06T03:39:38.371Z,29.90
2019-05-06T03:40:13.824Z,30.20
2019-05-06T03:40:46.436Z,30.00
2019-05-06T03:41:26.165Z,29.90
2019-05-06T03:41:55.865Z,29.90
2019-05-06T03:42:28.743Z,30.02
2019-05-06T03:43:02.742Z,29.90
2019-05-06T03:43:36.942Z,30.35
2019-05-06T03:44:10.093Z,30.02
2019-05-06T03:44:45.504Z,30.27
2019-05-06T03:45:33.550Z,29.92
2019-05-06T03:46:29.422Z,29.77
2019-05-06T03:47:28.040Z,30.30
2019-05-06T03:48:07.999Z,29.90
2019-05-06T03:48:44.302Z,29.98
2019-05-06T03:49:17.781Z,29.95
2019-05-06T03:49:54.402Z,30.12
2019-05-06T03:50:25.997Z,30.00
2019-05-06T03:50:58.913Z,29.77
2019-05-06T03:51:34.301Z,30.00
2019-05-06T03:52:06.851Z,29.65
2019-05-06T03:52:42.871Z,29.95
2019-05-06T03:53:16.227Z,29.98
2019-05-06T03:53:49.260Z,30.20
2019-05-06T03:54:23.213Z,29.63
2019-05-06T03:54:57.741Z,29.80
2019-05-06T03:55:33.981Z,30.20
2019-05-06T03:56:06.169Z,29.90
2019-05-06T03:56:39.519Z,30.65
2019-05-06T03:57:13.852Z,29.70
2019-05-06T03:57:47.657Z,29.60
2019-05-06T03:58:23.656Z,29.95
2019-05-06T03:58:57.674Z,29.92
2019-05-06T03:59:33.521Z,30.08
2019-05-06T04:00:13.268Z,29.80
2019-05-06T04:00:46.777Z,29.42
2019-05-06T04:01:23.658Z,29.67
2019-05-06T04:01:55.963Z,29.37
2019-05-06T04:02:29.234Z,30.10
2019-05-06T04:03:03.257Z,29.65
2019-05-06T04:03:47.155Z,29.52
2019-05-06T04:04:12.611Z,29.85
2019-05-06T04:04:45.973Z,30.05
2019-05-06T04:05:18.980Z,30.00
2019-05-06T04:05:55.995Z,29.42
2019-05-06T04:06:28.451Z,29.87
2019-05-06T04:07:03.362Z,30.02
2019-05-06T04:07:36.732Z,30.40
2019-05-06T04:08:12.615Z,29.25
2019-05-06T04:08:46.378Z,29.80
2019-05-06T04:09:19.555Z,29.90
2019-05-06T04:09:53.465Z,29.70
2019-05-06T04:10:27.180Z,30.02
2019-05-06T04:11:02.993Z,30.17
2019-05-06T04:11:37.563Z,29.98
2019-05-06T04:12:12.822Z,29.98
2019-05-06T04:12:48.937Z,29.67
2019-05-06T04:13:43.715Z,29.80
2019-05-06T04:14:17.362Z,29.70
2019-05-06T04:14:54.102Z,30.17
2019-05-06T04:15:29.026Z,30.10
2019-05-06T04:16:09.803Z,29.85
2019-05-06T04:16:53.253Z,29.77
2019-05-06T04:17:43.865Z,29.70
2019-05-06T04:18:17.100Z,30.05
2019-05-06T04:18:57.207Z,30.27
2019-05-06T04:19:38.331Z,29.80
2019-05-06T04:20:24.828Z,29.77
2019-05-06T04:21:08.551Z,30.05
2019-05-06T04:21:53.031Z,29.60
2019-05-06T04:22:35.964Z,30.23
2019-05-06T04:23:26.871Z,30.17
2019-05-06T04:24:13.865Z,30.25
2019-05-06T04:25:06.579Z,29.87
2019-05-06T04:25:45.834Z,29.95
2019-05-06T04:26:46.504Z,29.67
2019-05-06T04:27:38.184Z,30.00
2019-05-06T04:28:18.635Z,29.85
2019-05-06T04:28:53.477Z,30.10
2019-05-06T04:29:27.955Z,29.80
2019-05-06T04:30:04.304Z,30.02
2019-05-06T04:30:37.145Z,29.70
2019-05-06T04:31:13.151Z,29.75
2019-05-06T04:31:45.256Z,30.27
2019-05-06T04:32:18.292Z,29.90
2019-05-06T04:32:53.209Z,30.12
2019-05-06T04:33:26.562Z,30.57
2019-05-06T04:34:10.233Z,29.95
2019-05-06T04:34:34.769Z,29.70
2019-05-06T04:35:08.099Z,30.23
2019-05-06T04:35:43.010Z,29.52
2019-05-06T04:36:16.355Z,30.15
2019-05-06T04:36:49.753Z,30.25
2019-05-06T04:37:24.242Z,30.08
2019-05-06T04:37:57.520Z,29.70
2019-05-06T04:38:33.510Z,29.92
2019-05-06T04:39:07.112Z,29.57
2019-05-06T04:39:43.290Z,30.30
2019-05-06T04:40:15.766Z,30.00
2019-05-06T04:40:48.938Z,29.75
2019-05-06T04:41:26.171Z,29.95
2019-05-06T04:41:58.515Z,30.45
2019-05-06T04:42:34.537Z,30.08
2019-05-06T04:43:07.954Z,30.17
2019-05-06T04:43:43.607Z,29.85
2019-05-06T04:44:17.183Z,30.05
2019-05-06T04:44:53.190Z,30.17
2019-05-06T04:45:25.923Z,30.17
2019-05-06T04:45:58.917Z,30.17
2019-05-06T04:46:34.888Z,29.80
2019-05-06T04:47:07.114Z,29.80
2019-05-06T04:47:43.247Z,29.77
2019-05-06T04:48:15.213Z,29.87
2019-05-06T04:48:48.595Z,30.55
2019-05-06T04:49:23.815Z,30.30
2019-05-06T04:49:57.007Z,29.70
2019-05-06T04:50:33.092Z,29.87
2019-05-06T04:51:06.170Z,29.77
2019-05-06T04:51:39.154Z,29.77
2019-05-06T04:52:13.826Z,30.08
2019-05-06T04:52:54.688Z,30.12
2019-05-06T04:53:28.208Z,30.27
2019-05-06T04:54:04.010Z,30.00
2019-05-06T04:54:36.356Z,29.92
2019-05-06T04:55:09.713Z,29.48
2019-05-06T04:55:43.855Z,29.80
2019-05-06T04:56:17.359Z,30.10
2019-05-06T04:56:53.594Z,29.98
2019-05-06T04:57:26.742Z,29.80
2019-05-06T04:58:04.078Z,29.72
2019-05-06T04:58:38.563Z,29.98
2019-05-06T04:59:13.952Z,29.80
2019-05-06T04:59:46.475Z,29.65
2019-05-06T05:00:19.388Z,29.92
2019-05-06T05:00:53.238Z,29.42
2019-05-06T05:01:26.528Z,29.92
2019-05-06T05:02:02.494Z,29.75
2019-05-06T05:02:34.742Z,29.67
2019-05-06T05:03:07.859Z,29.77
2019-05-06T05:03:42.759Z,29.40
2019-05-06T05:04:28.409Z,30.23
2019-05-06T05:04:52.904Z,29.70
2019-05-06T05:05:26.399Z,30.17
2019-05-06T05:06:01.987Z,29.90
2019-05-06T05:06:34.621Z,30.12
2019-05-06T05:07:07.718Z,30.12
2019-05-06T05:07:42.597Z,29.27
2019-05-06T05:08:16.190Z,29.50
2019-05-06T05:08:49.238Z,30.00
2019-05-06T05:09:23.042Z,29.95
2019-05-06T05:10:04.644Z,29.37
2019-05-06T05:10:57.712Z,29.60
2019-05-06T05:11:54.679Z,29.70
2019-05-06T05:12:34.298Z,30.10
2019-05-06T05:13:16.142Z,29.77
2019-05-06T05:14:25.027Z,29.72
2019-05-06T05:15:18.551Z,29.63
2019-05-06T05:15:59.615Z,29.85
2019-05-06T05:16:38.108Z,29.80
2019-05-06T05:17:30.102Z,29.98
2019-05-06T05:18:31.886Z,30.20
2019-05-06T05:19:07.820Z,30.10
2019-05-06T05:19:42.869Z,29.90
2019-05-06T05:20:18.837Z,30.20
2019-05-06T05:20:52.890Z,29.75
2019-05-06T05:21:26.265Z,29.85
2019-05-06T05:22:05.832Z,30.08
2019-05-06T05:22:38.912Z,30.05
2019-05-06T05:23:11.996Z,29.82
2019-05-06T05:23:45.253Z,29.90
2019-05-06T05:24:18.409Z,29.90
2019-05-06T05:24:52.168Z,29.85
2019-05-06T05:25:25.410Z,29.67
2019-05-06T05:25:58.506Z,30.00
2019-05-06T05:26:32.275Z,29.90
2019-05-06T05:27:05.994Z,30.32
2019-05-06T05:27:39.080Z,30.05
2019-05-06T05:28:13.096Z,30.15
2019-05-06T05:28:46.442Z,30.17
2019-05-06T05:29:19.603Z,30.02
2019-05-06T05:29:52.575Z,30.68
2019-05-06T05:30:25.776Z,30.32
2019-05-06T05:31:00.397Z,30.30
2019-05-06T05:31:33.482Z,30.35
2019-05-06T05:32:06.512Z,30.35
2019-05-06T05:32:42.853Z,30.00
2019-05-06T05:33:16.216Z,29.75
2019-05-06T05:33:49.288Z,30.20
2019-05-06T05:34:23.836Z,30.17
2019-05-06T05:34:57.420Z,29.80
2019-05-06T05:35:32.175Z,29.98
2019-05-06T05:36:05.365Z,30.05
2019-05-06T05:36:38.432Z,29.80
2019-05-06T05:37:12.201Z,29.82
2019-05-06T05:37:45.408Z,30.00
2019-05-06T05:38:18.476Z,29.65
2019-05-06T05:38:52.224Z,29.98
2019-05-06T05:39:25.556Z,30.02
2019-05-06T05:39:58.732Z,30.10
2019-05-06T05:40:32.251Z,29.98
2019-05-06T05:41:05.527Z,30.40
2019-05-06T05:41:38.450Z,29.77
2019-05-06T05:42:24.404Z,29.85
2019-05-06T05:43:07.915Z,29.95
2019-05-06T05:43:46.876Z,29.90
2019-05-06T05:44:23.335Z,30.00
2019-05-06T05:44:56.468Z,29.90
2019-05-06T05:45:29.464Z,29.80
2019-05-06T05:46:02.997Z,29.77
2019-05-06T05:46:36.748Z,29.92
2019-05-06T05:47:09.938Z,30.17
2019-05-06T05:47:42.925Z,30.10
2019-05-06T05:48:35.841Z,30.10
2019-05-06T05:49:42.080Z,30.77
2019-05-06T05:50:32.600Z,30.30
2019-05-06T05:51:05.808Z,30.60
2019-05-06T05:51:39.002Z,29.70
2019-05-06T05:52:12.814Z,29.95
2019-05-06T05:52:45.720Z,30.23
2019-05-06T05:53:18.828Z,30.37
2019-05-06T05:53:52.438Z,30.15
2019-05-06T05:54:25.588Z,30.35
2019-05-06T05:54:58.751Z,30.02
2019-05-06T05:55:32.991Z,30.08
2019-05-06T05:56:06.694Z,30.15
2019-05-06T05:56:39.724Z,30.27
2019-05-06T05:57:13.888Z,30.35
2019-05-06T05:57:47.890Z,30.10
2019-05-06T05:58:24.585Z,30.00
2019-05-06T05:58:56.088Z,30.30
2019-05-06T05:59:29.620Z,30.52
2019-05-06T06:00:04.020Z,30.30
2019-05-06T06:00:37.271Z,30.32
2019-05-06T06:01:12.591Z,30.60
2019-05-06T06:01:45.433Z,30.25
2019-05-06T06:02:18.449Z,30.52
2019-05-06T06:02:52.980Z,30.08
2019-05-06T06:03:26.404Z,30.60
2019-05-06T06:03:59.428Z,30.35
2019-05-06T06:04:32.512Z,30.10
2019-05-06T06:05:05.901Z,30.17
2019-05-06T06:05:38.913Z,30.15
2019-05-06T06:06:12.677Z,30.27
2019-05-06T06:06:46.051Z,30.35
2019-05-06T06:07:19.363Z,30.27
2019-05-06T06:07:53.026Z,30.32
2019-05-06T06:08:26.729Z,30.20
2019-05-06T06:08:59.862Z,30.10
2019-05-06T06:09:39.004Z,30.27
2019-05-06T06:10:22.447Z,30.50
2019-05-06T06:10:59.156Z,30.30
2019-05-06T06:11:47.191Z,30.20
2019-05-06T06:12:20.193Z,29.87
2019-05-06T06:12:53.419Z,30.32
2019-05-06T06:13:27.699Z,29.85
2019-05-06T06:14:04.319Z,30.20
2019-05-06T06:14:57.134Z,29.60
2019-05-06T06:15:42.392Z,30.15
2019-05-06T06:16:47.848Z,29.70
2019-05-06T06:17:51.921Z,30.30
2019-05-06T06:18:37.306Z,29.70
2019-05-06T06:19:29.977Z,29.90
2019-05-06T06:20:24.674Z,30.30
2019-05-06T06:21:22.000Z,29.95
2019-05-06T06:21:56.970Z,30.10
2019-05-06T06:22:30.143Z,30.20
2019-05-06T06:23:13.431Z,29.67
2019-05-06T06:23:46.848Z,29.92
2019-05-06T06:24:23.714Z,30.10
2019-05-06T06:24:56.873Z,30.32
2019-05-06T06:25:30.231Z,30.12
2019-05-06T06:26:04.020Z,30.30
2019-05-06T06:26:37.158Z,30.05
2019-05-06T06:27:12.557Z,29.90
2019-05-06T06:27:48.225Z,30.23
2019-05-06T06:28:22.794Z,30.27
2019-05-06T06:28:57.080Z,30.12
2019-05-06T06:29:32.321Z,30.40
2019-05-06T06:30:05.640Z,30.00
2019-05-06T06:30:52.132Z,29.90
2019-05-06T06:31:34.414Z,30.15
2019-05-06T06:32:24.902Z,29.65
2019-05-06T06:32:58.737Z,30.10
2019-05-06T06:33:32.993Z,29.82
2019-05-06T06:34:19.738Z,29.70
2019-05-06T06:35:14.690Z,30.32
2019-05-06T06:36:03.634Z,29.87
2019-05-06T06:37:14.760Z,29.95
2019-05-06T06:37:56.888Z,30.00
2019-05-06T06:38:52.771Z,30.23
2019-05-06T06:39:32.629Z,30.00
2019-05-06T06:40:05.956Z,30.10
2019-05-06T06:40:39.160Z,30.10
2019-05-06T06:41:12.320Z,30.10
2019-05-06T06:41:45.318Z,29.98
2019-05-06T06:42:18.381Z,30.27
2019-05-06T06:42:55.878Z,30.23
2019-05-06T06:43:29.096Z,30.20
2019-05-06T06:44:07.414Z,30.17
2019-05-06T06:44:42.299Z,30.05
2019-05-06T06:45:15.478Z,30.10
2019-05-06T06:45:48.606Z,30.10
2019-05-06T06:46:22.397Z,30.25
2019-05-06T06:46:55.616Z,30.37
2019-05-06T06:47:29.142Z,30.30
2019-05-06T06:48:03.092Z,29.70
2019-05-06T06:48:36.582Z,30.05
2019-05-06T06:49:09.652Z,30.30
2019-05-06T06:49:42.660Z,29.98
2019-05-06T06:50:15.678Z,29.82
2019-05-06T06:50:52.238Z,30.30
2019-05-06T06:51:25.211Z,30.32
2019-05-06T06:51:58.222Z,30.00
2019-05-06T06:52:33.987Z,30.25
2019-05-06T06:53:07.011Z,30.20
2019-05-06T06:53:42.118Z,30.10
2019-05-06T06:54:15.432Z,30.20
2019-05-06T06:54:48.652Z,30.15
2019-05-06T06:55:22.870Z,30.40
2019-05-06T06:56:15.518Z,30.15
2019-05-06T06:57:09.368Z,30.40
2019-05-06T06:58:02.784Z,30.07
2019-05-06T06:58:45.961Z,30.43
2019-05-06T06:59:25.868Z,30.48
2019-05-06T07:00:09.743Z,30.30
2019-05-06T07:01:03.142Z,30.40
2019-05-06T07:01:46.182Z,30.35
2019-05-06T07:02:33.923Z,30.50
2019-05-06T07:03:12.324Z,30.90
2019-05-06T07:03:52.852Z,30.50
2019-05-06T07:04:35.152Z,30.72
2019-05-06T07:05:25.488Z,30.55
2019-05-06T07:06:12.623Z,30.70
2019-05-06T07:06:48.094Z,30.37
2019-05-06T07:07:22.800Z,30.90
2019-05-06T07:07:56.200Z,30.55
2019-05-06T07:08:36.654Z,30.72
2019-05-06T07:09:05.997Z,30.80
2019-05-06T07:09:39.240Z,30.30
2019-05-06T07:10:33.091Z,30.50
2019-05-06T07:11:06.182Z,30.40
2019-05-06T07:11:39.232Z,30.68
2019-05-06T07:12:13.284Z,30.55
2019-05-06T07:12:46.556Z,30.75
2019-05-06T07:13:19.542Z,30.70
2019-05-06T07:13:54.116Z,31.00
2019-05-06T07:14:27.194Z,30.90
2019-05-06T07:15:02.239Z,30.52
2019-05-06T07:15:35.038Z,30.90
2019-05-06T07:16:07.992Z,31.20
2019-05-06T07:16:43.010Z,31.12
2019-05-06T07:17:18.268Z,31.10
2019-05-06T07:17:52.500Z,30.92
2019-05-06T07:18:25.476Z,31.35
2019-05-06T07:18:58.516Z,31.20
2019-05-06T07:19:39.146Z,30.90
2019-05-06T07:20:14.132Z,31.30
2019-05-06T07:21:14.020Z,31.37
2019-05-06T07:21:52.246Z,31.10
2019-05-06T07:22:32.926Z,31.43
2019-05-06T07:23:24.240Z,31.10
2019-05-06T07:23:57.400Z,31.52
2019-05-06T07:24:32.323Z,31.40
2019-05-06T07:25:08.581Z,31.48
2019-05-06T07:25:42.919Z,31.10
2019-05-06T07:26:18.070Z,31.60
2019-05-06T07:26:55.772Z,31.60
2019-05-06T07:27:28.700Z,31.12
2019-05-06T07:28:02.932Z,31.60
2019-05-06T07:28:36.122Z,31.37
2019-05-06T07:29:17.245Z,31.30
2019-05-06T07:29:48.259Z,31.40
2019-05-06T07:30:32.287Z,31.60
2019-05-06T07:31:18.760Z,31.45
2019-05-06T07:31:42.518Z,31.30
2019-05-06T07:32:15.004Z,31.70
2019-05-06T07:32:48.018Z,31.45
2019-05-06T07:33:22.889Z,31.65
2019-05-06T07:33:56.064Z,31.85
2019-05-06T07:34:29.014Z,31.90
2019-05-06T07:35:02.443Z,32.20
2019-05-06T07:35:40.516Z,31.87
2019-05-06T07:36:12.958Z,31.90
2019-05-06T07:36:46.107Z,31.97
2019-05-06T07:37:19.121Z,31.80
2019-05-06T07:37:53.258Z,31.77
2019-05-06T07:38:26.315Z,31.95
2019-05-06T07:38:59.260Z,32.25
2019-05-06T07:39:33.385Z,32.15
2019-05-06T07:40:07.783Z,31.90
2019-05-06T07:40:42.006Z,32.08
2019-05-06T07:41:19.031Z,31.80
2019-05-06T07:41:54.685Z,31.70
2019-05-06T07:42:43.020Z,32.20
2019-05-06T07:43:36.112Z,31.73
2019-05-06T07:44:22.403Z,32.15
2019-05-06T07:45:33.154Z,32.10
2019-05-06T07:46:16.386Z,31.80
2019-05-06T07:46:54.622Z,31.52
2019-05-06T07:47:33.231Z,31.80
2019-05-06T07:48:12.662Z,31.80
2019-05-06T07:48:45.667Z,31.82
2019-05-06T07:49:20.256Z,31.73
2019-05-06T07:49:53.605Z,31.80
2019-05-06T07:50:28.270Z,31.97
2019-05-06T07:51:03.071Z,32.00